sensor_id;sensor_type;location;lat;lon;timestamp;pressure;altitude;pressure_sealevel;temperature;humidity
9969;BME280;5025;48.890;9.278;2024-03-29T00:00:36;97122.84;;;8.25;50.23
9969;BME280;5025;48.890;9.278;2024-03-29T00:03:02;97127.66;;;8.23;50.35
9969;BME280;5025;48.890;9.278;2024-03-29T00:05:27;97120.91;;;8.20;50.50
9969;BME280;5025;48.890;9.278;2024-03-29T00:07:52;97118.94;;;8.11;50.83
9969;BME280;5025;48.890;9.278;2024-03-29T00:10:18;97116.78;;;8.07;51.07
9969;BME280;5025;48.890;9.278;2024-03-29T00:12:43;97109.22;;;8.04;51.19
9969;BME280;5025;48.890;9.278;2024-03-29T00:15:08;97114.06;;;8.07;51.19
9969;BME280;5025;48.890;9.278;2024-03-29T00:17:33;97098.91;;;7.96;51.45
9969;BME280;5025;48.890;9.278;2024-03-29T00:19:59;97090.28;;;7.94;51.92
9969;BME280;5025;48.890;9.278;2024-03-29T00:22:24;97085.53;;;8.01;51.77
9969;BME280;5025;48.890;9.278;2024-03-29T00:24:49;97067.25;;;8.03;51.90
9969;BME280;5025;48.890;9.278;2024-03-29T00:27:14;97073.00;;;8.12;51.57
9969;BME280;5025;48.890;9.278;2024-03-29T00:29:40;97059.31;;;8.19;51.55
9969;BME280;5025;48.890;9.278;2024-03-29T00:32:05;97053.72;;;8.25;51.42
9969;BME280;5025;48.890;9.278;2024-03-29T00:34:31;97053.78;;;8.31;51.36
9969;BME280;5025;48.890;9.278;2024-03-29T00:36:56;97038.47;;;8.36;51.26
9969;BME280;5025;48.890;9.278;2024-03-29T00:39:21;97044.44;;;8.38;51.22
9969;BME280;5025;48.890;9.278;2024-03-29T00:41:47;97028.28;;;8.38;51.27
9969;BME280;5025;48.890;9.278;2024-03-29T00:44:12;97016.97;;;8.36;51.32
9969;BME280;5025;48.890;9.278;2024-03-29T00:46:38;97007.06;;;8.42;51.28
9969;BME280;5025;48.890;9.278;2024-03-29T00:49:03;97013.59;;;8.46;51.16
9969;BME280;5025;48.890;9.278;2024-03-29T00:51:28;97019.78;;;8.47;51.24
9969;BME280;5025;48.890;9.278;2024-03-29T00:53:54;97014.41;;;8.52;50.98
9969;BME280;5025;48.890;9.278;2024-03-29T00:56:20;97006.66;;;8.55;50.96
9969;BME280;5025;48.890;9.278;2024-03-29T00:58:45;97009.88;;;8.57;51.06
9969;BME280;5025;48.890;9.278;2024-03-29T01:01:11;96998.34;;;8.62;50.96
9969;BME280;5025;48.890;9.278;2024-03-29T01:03:36;96988.94;;;8.65;50.75
9969;BME280;5025;48.890;9.278;2024-03-29T01:06:01;96991.38;;;8.66;50.75
9969;BME280;5025;48.890;9.278;2024-03-29T01:08:26;97000.53;;;8.70;50.53
9969;BME280;5025;48.890;9.278;2024-03-29T01:10:52;97000.59;;;8.75;50.43
9969;BME280;5025;48.890;9.278;2024-03-29T01:13:17;97014.06;;;8.81;50.35
9969;BME280;5025;48.890;9.278;2024-03-29T01:15:43;97014.06;;;8.81;50.32
9969;BME280;5025;48.890;9.278;2024-03-29T01:18:09;97002.50;;;8.80;50.44
9969;BME280;5025;48.890;9.278;2024-03-29T01:20:35;97000.34;;;8.82;50.58
9969;BME280;5025;48.890;9.278;2024-03-29T01:23:00;96994.44;;;8.85;50.54
9969;BME280;5025;48.890;9.278;2024-03-29T01:25:26;96992.81;;;8.84;50.60
9969;BME280;5025;48.890;9.278;2024-03-29T01:27:52;96991.47;;;8.87;50.36
9969;BME280;5025;48.890;9.278;2024-03-29T01:30:18;96989.31;;;8.89;50.45
9969;BME280;5025;48.890;9.278;2024-03-29T01:32:43;96990.44;;;8.93;50.35
9969;BME280;5025;48.890;9.278;2024-03-29T01:35:08;96987.22;;;8.96;50.28
9969;BME280;5025;48.890;9.278;2024-03-29T01:37:34;96997.19;;;9.01;50.19
9969;BME280;5025;48.890;9.278;2024-03-29T01:39:59;96986.69;;;9.04;49.92
9969;BME280;5025;48.890;9.278;2024-03-29T01:42:24;96981.31;;;9.04;50.06
9969;BME280;5025;48.890;9.278;2024-03-29T01:44:50;96972.44;;;9.09;49.99
9969;BME280;5025;48.890;9.278;2024-03-29T01:47:16;96973.81;;;9.11;49.88
9969;BME280;5025;48.890;9.278;2024-03-29T01:49:42;96967.38;;;9.12;50.00
9969;BME280;5025;48.890;9.278;2024-03-29T01:52:08;96961.97;;;9.12;49.76
9969;BME280;5025;48.890;9.278;2024-03-29T01:54:34;96961.44;;;9.15;49.67
9969;BME280;5025;48.890;9.278;2024-03-29T01:56:59;96953.09;;;9.17;49.30
9969;BME280;5025;48.890;9.278;2024-03-29T01:59:25;96953.91;;;9.18;49.37
9969;BME280;5025;48.890;9.278;2024-03-29T02:01:51;96955.53;;;9.19;49.16
9969;BME280;5025;48.890;9.278;2024-03-29T02:04:16;96951.75;;;9.20;48.92
9969;BME280;5025;48.890;9.278;2024-03-29T02:06:42;96958.50;;;9.22;48.78
9969;BME280;5025;48.890;9.278;2024-03-29T02:09:07;96952.84;;;9.24;48.68
9969;BME280;5025;48.890;9.278;2024-03-29T02:11:34;96953.91;;;9.28;48.31
9969;BME280;5025;48.890;9.278;2024-03-29T02:14:00;96949.09;;;9.30;47.89
9969;BME280;5025;48.890;9.278;2024-03-29T02:16:25;96956.88;;;9.26;47.86
9969;BME280;5025;48.890;9.278;2024-03-29T02:18:50;96966.31;;;9.29;47.78
9969;BME280;5025;48.890;9.278;2024-03-29T02:21:16;96966.31;;;9.34;47.56
9969;BME280;5025;48.890;9.278;2024-03-29T02:23:43;96972.28;;;9.36;47.68
9969;BME280;5025;48.890;9.278;2024-03-29T02:26:11;96964.19;;;9.36;47.61
9969;BME280;5025;48.890;9.278;2024-03-29T02:28:37;96952.88;;;9.39;47.46
9969;BME280;5025;48.890;9.278;2024-03-29T02:31:02;96946.97;;;9.42;47.59
9969;BME280;5025;48.890;9.278;2024-03-29T02:33:28;96951.25;;;9.43;47.31
9969;BME280;5025;48.890;9.278;2024-03-29T02:35:53;96946.97;;;9.42;47.22
9969;BME280;5025;48.890;9.278;2024-03-29T02:38:18;96961.50;;;9.46;47.44
9969;BME280;5025;48.890;9.278;2024-03-29T02:40:44;96958.28;;;9.44;47.23
9969;BME280;5025;48.890;9.278;2024-03-29T02:43:09;96965.28;;;9.45;47.08
9969;BME280;5025;48.890;9.278;2024-03-29T02:45:34;96959.38;;;9.48;47.08
9969;BME280;5025;48.890;9.278;2024-03-29T02:48:00;96952.09;;;9.49;47.27
9969;BME280;5025;48.890;9.278;2024-03-29T02:50:25;96948.31;;;9.50;47.17
9969;BME280;5025;48.890;9.278;2024-03-29T02:52:50;96945.63;;;9.50;47.23
9969;BME280;5025;48.890;9.278;2024-03-29T02:55:15;96941.31;;;9.49;47.31
9969;BME280;5025;48.890;9.278;2024-03-29T02:57:41;96961.53;;;9.51;47.35
9969;BME280;5025;48.890;9.278;2024-03-29T03:00:07;96953.44;;;9.51;47.23
9969;BME280;5025;48.890;9.278;2024-03-29T03:02:40;96965.81;;;9.52;47.20
9969;BME280;5025;48.890;9.278;2024-03-29T03:05:07;96967.44;;;9.54;47.18
9969;BME280;5025;48.890;9.278;2024-03-29T03:07:32;96966.91;;;9.51;47.18
9969;BME280;5025;48.890;9.278;2024-03-29T03:10:16;96963.13;;;9.52;47.16
9969;BME280;5025;48.890;9.278;2024-03-29T03:13:00;96956.94;;;9.52;47.04
9969;BME280;5025;48.890;9.278;2024-03-29T03:15:25;96965.81;;;9.52;47.14
9969;BME280;5025;48.890;9.278;2024-03-29T03:17:50;96961.00;;;9.55;47.01
9969;BME280;5025;48.890;9.278;2024-03-29T03:20:16;96966.66;;;9.53;46.96
9969;BME280;5025;48.890;9.278;2024-03-29T03:22:42;96960.44;;;9.52;46.91
9969;BME280;5025;48.890;9.278;2024-03-29T03:25:07;96966.91;;;9.51;46.94
9969;BME280;5025;48.890;9.278;2024-03-29T03:27:33;96970.94;;;9.49;46.71
9969;BME280;5025;48.890;9.278;2024-03-29T03:29:58;96973.09;;;9.52;46.74
9969;BME280;5025;48.890;9.278;2024-03-29T03:32:23;96984.16;;;9.56;46.79
9969;BME280;5025;48.890;9.278;2024-03-29T03:34:49;96989.28;;;9.57;46.67
9969;BME280;5025;48.890;9.278;2024-03-29T03:37:14;97002.47;;;9.54;46.61
9969;BME280;5025;48.890;9.278;2024-03-29T03:39:39;97006.25;;;9.52;46.60
9969;BME280;5025;48.890;9.278;2024-03-29T03:42:04;97008.94;;;9.52;46.74
9969;BME280;5025;48.890;9.278;2024-03-29T03:44:30;97022.97;;;9.55;46.99
9969;BME280;5025;48.890;9.278;2024-03-29T03:46:55;97027.81;;;9.52;46.81
9969;BME280;5025;48.890;9.278;2024-03-29T03:49:20;97043.97;;;9.47;47.26
9969;BME280;5025;48.890;9.278;2024-03-29T03:51:46;97045.03;;;9.41;47.60
9969;BME280;5025;48.890;9.278;2024-03-29T03:54:11;97049.34;;;9.42;47.57
9969;BME280;5025;48.890;9.278;2024-03-29T03:56:36;97041.78;;;9.39;48.04
9969;BME280;5025;48.890;9.278;2024-03-29T03:59:01;97014.59;;;9.41;47.96
9969;BME280;5025;48.890;9.278;2024-03-29T04:01:27;97030.47;;;9.42;48.01
9969;BME280;5025;48.890;9.278;2024-03-29T04:03:52;97039.06;;;9.34;48.75
9969;BME280;5025;48.890;9.278;2024-03-29T04:06:17;97024.47;;;9.20;50.42
9969;BME280;5025;48.890;9.278;2024-03-29T04:08:46;96992.72;;;9.27;50.16
9969;BME280;5025;48.890;9.278;2024-03-29T04:11:11;97014.81;;;9.29;50.08
9969;BME280;5025;48.890;9.278;2024-03-29T04:13:36;96987.06;;;9.33;49.83
9969;BME280;5025;48.890;9.278;2024-03-29T04:16:04;96969.00;;;9.34;49.58
9969;BME280;5025;48.890;9.278;2024-03-29T04:18:30;96955.28;;;9.36;49.41
9969;BME280;5025;48.890;9.278;2024-03-29T04:21:03;96951.78;;;9.40;49.81
9969;BME280;5025;48.890;9.278;2024-03-29T04:23:29;96939.41;;;9.39;49.82
9969;BME280;5025;48.890;9.278;2024-03-29T04:25:58;96927.28;;;9.42;49.94
9969;BME280;5025;48.890;9.278;2024-03-29T04:28:25;96916.22;;;9.43;49.97
9969;BME280;5025;48.890;9.278;2024-03-29T04:31:08;96920.56;;;9.44;49.93
9969;BME280;5025;48.890;9.278;2024-03-29T04:33:34;96932.41;;;9.43;50.12
9969;BME280;5025;48.890;9.278;2024-03-29T04:36:03;96925.94;;;9.44;50.06
9969;BME280;5025;48.890;9.278;2024-03-29T04:38:29;96934.03;;;9.44;50.13
9969;BME280;5025;48.890;9.278;2024-03-29T04:40:56;96949.66;;;9.42;50.17
9969;BME280;5025;48.890;9.278;2024-03-29T04:43:24;96971.22;;;9.42;50.27
9969;BME280;5025;48.890;9.278;2024-03-29T04:45:50;96977.41;;;9.43;50.13
9969;BME280;5025;48.890;9.278;2024-03-29T04:48:15;97008.09;;;9.42;49.85
9969;BME280;5025;48.890;9.278;2024-03-29T04:50:41;97010.00;;;9.41;49.56
9969;BME280;5025;48.890;9.278;2024-03-29T04:53:09;97045.03;;;9.41;49.38
9969;BME280;5025;48.890;9.278;2024-03-29T04:55:34;97016.69;;;9.33;49.90
9969;BME280;5025;48.890;9.278;2024-03-29T04:58:00;97004.88;;;9.35;49.95
9969;BME280;5025;48.890;9.278;2024-03-29T05:00:26;96975.78;;;9.37;49.71
9969;BME280;5025;48.890;9.278;2024-03-29T05:02:51;96977.41;;;9.38;49.89
9969;BME280;5025;48.890;9.278;2024-03-29T05:05:16;96957.44;;;9.39;49.96
9969;BME280;5025;48.890;9.278;2024-03-29T05:07:42;96951.25;;;9.43;49.97
9969;BME280;5025;48.890;9.278;2024-03-29T05:10:07;96920.56;;;9.44;50.07
9969;BME280;5025;48.890;9.278;2024-03-29T05:12:33;96923.50;;;9.48;49.66
9969;BME280;5025;48.890;9.278;2024-03-29T05:14:58;96921.63;;;9.43;49.43
9969;BME280;5025;48.890;9.278;2024-03-29T05:17:24;96922.69;;;9.37;49.84
9969;BME280;5025;48.890;9.278;2024-03-29T05:19:55;96918.94;;;9.38;49.68
9969;BME280;5025;48.890;9.278;2024-03-29T05:22:21;96923.25;;;9.39;49.66
9969;BME280;5025;48.890;9.278;2024-03-29T05:24:47;96933.19;;;9.39;49.51
9969;BME280;5025;48.890;9.278;2024-03-29T05:27:12;96938.84;;;9.37;49.42
9969;BME280;5025;48.890;9.278;2024-03-29T05:29:38;96950.72;;;9.36;49.36
9969;BME280;5025;48.890;9.278;2024-03-29T05:32:04;96948.03;;;9.36;49.18
9969;BME280;5025;48.890;9.278;2024-03-29T05:34:29;96945.59;;;9.40;49.11
9969;BME280;5025;48.890;9.278;2024-03-29T05:36:55;96943.97;;;9.39;48.96
9969;BME280;5025;48.890;9.278;2024-03-29T05:39:20;96962.03;;;9.43;49.02
9969;BME280;5025;48.890;9.278;2024-03-29T05:41:45;96960.69;;;9.46;48.91
9969;BME280;5025;48.890;9.278;2024-03-29T05:44:11;96951.56;;;9.47;48.84
9969;BME280;5025;48.890;9.278;2024-03-29T05:46:36;96932.44;;;9.48;48.77
9969;BME280;5025;48.890;9.278;2024-03-29T05:49:02;96930.53;;;9.49;48.61
9969;BME280;5025;48.890;9.278;2024-03-29T05:51:28;96938.63;;;9.49;48.51
9969;BME280;5025;48.890;9.278;2024-03-29T05:53:53;96961.25;;;9.53;48.19
9969;BME280;5025;48.890;9.278;2024-03-29T05:56:18;96960.44;;;9.52;48.05
9969;BME280;5025;48.890;9.278;2024-03-29T05:58:43;96957.75;;;9.52;48.05
9969;BME280;5025;48.890;9.278;2024-03-29T06:01:10;96957.22;;;9.56;47.70
9969;BME280;5025;48.890;9.278;2024-03-29T06:03:35;96956.16;;;9.57;47.32
9969;BME280;5025;48.890;9.278;2024-03-29T06:06:00;96961.53;;;9.57;47.23
9969;BME280;5025;48.890;9.278;2024-03-29T06:08:26;96968.00;;;9.56;47.18
9969;BME280;5025;48.890;9.278;2024-03-29T06:10:52;96982.56;;;9.55;47.00
9969;BME280;5025;48.890;9.278;2024-03-29T06:13:17;96979.88;;;9.55;46.89
9969;BME280;5025;48.890;9.278;2024-03-29T06:15:54;96986.84;;;9.56;46.75
9969;BME280;5025;48.890;9.278;2024-03-29T06:18:38;96982.56;;;9.60;46.61
9969;BME280;5025;48.890;9.278;2024-03-29T06:21:03;96980.41;;;9.62;46.34
9969;BME280;5025;48.890;9.278;2024-03-29T06:23:29;96971.78;;;9.65;46.20
9969;BME280;5025;48.890;9.278;2024-03-29T06:25:54;96967.47;;;9.69;46.06
9969;BME280;5025;48.890;9.278;2024-03-29T06:28:19;96961.81;;;9.71;45.95
9969;BME280;5025;48.890;9.278;2024-03-29T06:30:44;96967.47;;;9.74;46.18
9969;BME280;5025;48.890;9.278;2024-03-29T06:33:10;96969.38;;;9.79;46.14
9969;BME280;5025;48.890;9.278;2024-03-29T06:35:35;96974.22;;;9.82;46.24
9969;BME280;5025;48.890;9.278;2024-03-29T06:38:01;96969.94;;;9.81;46.11
9969;BME280;5025;48.890;9.278;2024-03-29T06:40:26;96980.44;;;9.82;46.28
9969;BME280;5025;48.890;9.278;2024-03-29T06:42:51;96991.75;;;9.84;46.28
9969;BME280;5025;48.890;9.278;2024-03-29T06:45:17;96990.13;;;9.78;46.70
9969;BME280;5025;48.890;9.278;2024-03-29T06:47:42;96980.16;;;9.74;47.13
9969;BME280;5025;48.890;9.278;2024-03-29T06:50:08;96990.13;;;9.78;47.39
9969;BME280;5025;48.890;9.278;2024-03-29T06:52:33;96983.66;;;9.84;47.05
9969;BME280;5025;48.890;9.278;2024-03-29T06:54:58;96973.41;;;9.86;47.27
9969;BME280;5025;48.890;9.278;2024-03-29T06:57:23;96981.50;;;9.86;47.18
9969;BME280;5025;48.890;9.278;2024-03-29T06:59:51;96971.81;;;9.85;47.50
9969;BME280;5025;48.890;9.278;2024-03-29T07:02:16;96964.25;;;9.93;47.54
9969;BME280;5025;48.890;9.278;2024-03-29T07:04:42;96958.88;;;9.98;47.40
9969;BME280;5025;48.890;9.278;2024-03-29T07:07:07;96963.72;;;10.01;47.44
9969;BME280;5025;48.890;9.278;2024-03-29T07:09:32;96964.00;;;10.04;47.51
9969;BME280;5025;48.890;9.278;2024-03-29T07:11:57;96958.59;;;10.10;47.69
9969;BME280;5025;48.890;9.278;2024-03-29T07:14:23;96951.84;;;10.12;47.45
9969;BME280;5025;48.890;9.278;2024-03-29T07:16:51;96952.94;;;10.16;47.67
9969;BME280;5025;48.890;9.278;2024-03-29T07:19:17;96946.44;;;10.17;47.67
9969;BME280;5025;48.890;9.278;2024-03-29T07:21:44;96948.88;;;10.19;47.81
9969;BME280;5025;48.890;9.278;2024-03-29T07:24:09;96947.81;;;10.20;47.83
9969;BME280;5025;48.890;9.278;2024-03-29T07:26:35;96950.22;;;10.21;48.07
9969;BME280;5025;48.890;9.278;2024-03-29T07:29:00;96954.56;;;10.22;48.25
9969;BME280;5025;48.890;9.278;2024-03-29T07:31:26;96971.53;;;10.23;48.74
9969;BME280;5025;48.890;9.278;2024-03-29T07:33:51;96984.22;;;10.22;48.88
9969;BME280;5025;48.890;9.278;2024-03-29T07:36:16;96981.53;;;10.22;49.39
9969;BME280;5025;48.890;9.278;2024-03-29T07:38:42;96979.91;;;10.21;49.76
9969;BME280;5025;48.890;9.278;2024-03-29T07:41:08;96984.75;;;10.19;50.13
9969;BME280;5025;48.890;9.278;2024-03-29T07:43:39;96997.69;;;10.17;50.39
9969;BME280;5025;48.890;9.278;2024-03-29T07:46:05;97007.94;;;10.15;50.57
9969;BME280;5025;48.890;9.278;2024-03-29T07:48:33;97014.41;;;10.14;50.44
9969;BME280;5025;48.890;9.278;2024-03-29T07:50:59;97007.44;;;10.13;50.82
9969;BME280;5025;48.890;9.278;2024-03-29T07:53:24;97007.97;;;10.10;50.78
9969;BME280;5025;48.890;9.278;2024-03-29T07:55:49;96993.13;;;10.08;51.21
9969;BME280;5025;48.890;9.278;2024-03-29T07:58:15;97008.50;;;10.07;51.58
9969;BME280;5025;48.890;9.278;2024-03-29T08:00:41;97036.00;;;9.94;53.27
9969;BME280;5025;48.890;9.278;2024-03-29T08:03:07;97034.34;;;9.82;55.40
9969;BME280;5025;48.890;9.278;2024-03-29T08:05:32;97057.25;;;9.80;55.89
9969;BME280;5025;48.890;9.278;2024-03-29T08:07:58;97059.13;;;9.74;57.02
9969;BME280;5025;48.890;9.278;2024-03-29T08:10:24;97082.31;;;9.75;57.14
9969;BME280;5025;48.890;9.278;2024-03-29T08:12:49;97088.25;;;9.72;57.69
9969;BME280;5025;48.890;9.278;2024-03-29T08:15:14;97096.31;;;9.67;58.28
9969;BME280;5025;48.890;9.278;2024-03-29T08:17:40;97108.69;;;9.68;58.26
9969;BME280;5025;48.890;9.278;2024-03-29T08:20:05;97118.41;;;9.64;58.68
9969;BME280;5025;48.890;9.278;2024-03-29T08:22:30;97121.06;;;9.59;59.60
9969;BME280;5025;48.890;9.278;2024-03-29T08:24:58;97109.75;;;9.57;59.93
9969;BME280;5025;48.890;9.278;2024-03-29T08:27:24;97109.75;;;9.57;60.32
9969;BME280;5025;48.890;9.278;2024-03-29T08:29:49;97116.75;;;9.58;60.60
9969;BME280;5025;48.890;9.278;2024-03-29T08:32:15;97131.03;;;9.58;60.83
9969;BME280;5025;48.890;9.278;2024-03-29T08:34:40;97125.13;;;9.56;61.46
9969;BME280;5025;48.890;9.278;2024-03-29T08:37:06;97125.63;;;9.53;62.09
9969;BME280;5025;48.890;9.278;2024-03-29T08:39:31;97144.50;;;9.53;62.59
9969;BME280;5025;48.890;9.278;2024-03-29T08:41:57;97151.75;;;9.47;63.08
9969;BME280;5025;48.890;9.278;2024-03-29T08:44:23;97155.50;;;9.46;63.69
9969;BME280;5025;48.890;9.278;2024-03-29T08:46:49;97151.19;;;9.45;63.89
9969;BME280;5025;48.890;9.278;2024-03-29T08:49:15;97154.97;;;9.49;64.35
9969;BME280;5025;48.890;9.278;2024-03-29T08:51:40;97156.09;;;9.54;64.93
9969;BME280;5025;48.890;9.278;2024-03-29T08:54:05;97165.53;;;9.56;65.15
9969;BME280;5025;48.890;9.278;2024-03-29T08:56:32;97158.25;;;9.57;65.74
9969;BME280;5025;48.890;9.278;2024-03-29T08:58:57;97158.78;;;9.59;66.37
9969;BME280;5025;48.890;9.278;2024-03-29T09:01:26;97148.84;;;9.59;66.89
9969;BME280;5025;48.890;9.278;2024-03-29T09:03:51;97129.72;;;9.61;67.45
9969;BME280;5025;48.890;9.278;2024-03-29T09:06:16;97135.63;;;9.63;67.81
9969;BME280;5025;48.890;9.278;2024-03-29T09:08:41;97144.25;;;9.60;68.20
9969;BME280;5025;48.890;9.278;2024-03-29T09:11:07;97140.50;;;9.61;68.51
9969;BME280;5025;48.890;9.278;2024-03-29T09:13:32;97139.66;;;9.60;68.85
9969;BME280;5025;48.890;9.278;2024-03-29T09:15:57;97138.06;;;9.59;69.33
9969;BME280;5025;48.890;9.278;2024-03-29T09:18:22;97134.28;;;9.60;69.70
9969;BME280;5025;48.890;9.278;2024-03-29T09:20:58;97128.66;;;9.67;69.96
9969;BME280;5025;48.890;9.278;2024-03-29T09:23:25;97126.25;;;9.71;70.10
9969;BME280;5025;48.890;9.278;2024-03-29T09:25:51;97107.94;;;9.78;70.16
9969;BME280;5025;48.890;9.278;2024-03-29T09:28:17;97096.63;;;9.81;70.66
9969;BME280;5025;48.890;9.278;2024-03-29T09:30:42;97098.22;;;9.82;71.06
9969;BME280;5025;48.890;9.278;2024-03-29T09:33:07;97083.94;;;9.81;71.72
9969;BME280;5025;48.890;9.278;2024-03-29T09:35:34;97106.31;;;9.82;72.56
9969;BME280;5025;48.890;9.278;2024-03-29T09:38:00;97118.47;;;9.84;73.19
9969;BME280;5025;48.890;9.278;2024-03-29T09:40:26;97122.22;;;9.83;73.74
9969;BME280;5025;48.890;9.278;2024-03-29T09:42:52;97134.66;;;9.84;74.24
9969;BME280;5025;48.890;9.278;2024-03-29T09:45:18;97125.19;;;9.82;75.27
9969;BME280;5025;48.890;9.278;2024-03-29T09:47:45;97119.00;;;9.81;76.31
9969;BME280;5025;48.890;9.278;2024-03-29T09:50:11;97122.75;;;9.80;76.73
9969;BME280;5025;48.890;9.278;2024-03-29T09:52:38;97095.53;;;9.82;77.21
9969;BME280;5025;48.890;9.278;2024-03-29T09:55:05;97084.50;;;9.83;77.55
9969;BME280;5025;48.890;9.278;2024-03-29T09:57:32;97079.38;;;9.87;77.82
9969;BME280;5025;48.890;9.278;2024-03-29T09:59:57;97066.19;;;9.91;78.15
9969;BME280;5025;48.890;9.278;2024-03-29T10:02:25;97063.75;;;9.94;78.39
9969;BME280;5025;48.890;9.278;2024-03-29T10:04:53;97074.28;;;9.96;78.63
9969;BME280;5025;48.890;9.278;2024-03-29T10:07:21;97074.00;;;9.97;78.90
9969;BME280;5025;48.890;9.278;2024-03-29T10:09:47;97080.50;;;10.01;79.24
9969;BME280;5025;48.890;9.278;2024-03-29T10:12:12;97084.56;;;10.04;79.32
9969;BME280;5025;48.890;9.278;2024-03-29T10:14:45;97082.38;;;10.06;79.47
9969;BME280;5025;48.890;9.278;2024-03-29T10:17:15;97089.16;;;10.09;80.09
9969;BME280;5025;48.890;9.278;2024-03-29T10:19:41;97094.28;;;10.10;80.42
9969;BME280;5025;48.890;9.278;2024-03-29T10:22:07;97094.81;;;10.12;80.83
9969;BME280;5025;48.890;9.278;2024-03-29T10:24:33;97089.13;;;10.14;81.07
9969;BME280;5025;48.890;9.278;2024-03-29T10:26:59;97078.63;;;10.17;81.57
9969;BME280;5025;48.890;9.278;2024-03-29T10:29:30;97071.63;;;10.21;82.07
9969;BME280;5025;48.890;9.278;2024-03-29T10:31:56;97078.38;;;10.24;82.31
9969;BME280;5025;48.890;9.278;2024-03-29T10:34:21;97061.38;;;10.29;82.33
9969;BME280;5025;48.890;9.278;2024-03-29T10:36:48;97051.41;;;10.34;82.88
9969;BME280;5025;48.890;9.278;2024-03-29T10:39:16;97072.19;;;10.39;82.94
9969;BME280;5025;48.890;9.278;2024-03-29T10:41:42;97063.28;;;10.44;83.46
9969;BME280;5025;48.890;9.278;2024-03-29T10:44:09;97059.78;;;10.48;83.55
9969;BME280;5025;48.890;9.278;2024-03-29T10:46:37;97065.72;;;10.50;84.02
9969;BME280;5025;48.890;9.278;2024-03-29T10:49:03;97060.59;;;10.54;84.30
9969;BME280;5025;48.890;9.278;2024-03-29T10:51:31;97065.44;;;10.57;84.62
9969;BME280;5025;48.890;9.278;2024-03-29T10:53:57;97074.88;;;10.59;84.94
9969;BME280;5025;48.890;9.278;2024-03-29T10:56:24;97071.63;;;10.63;85.18
9969;BME280;5025;48.890;9.278;2024-03-29T10:58:54;97058.94;;;10.68;85.40
9969;BME280;5025;48.890;9.278;2024-03-29T11:01:22;97065.44;;;10.72;85.48
9969;BME280;5025;48.890;9.278;2024-03-29T11:03:54;97072.72;;;10.77;85.89
9969;BME280;5025;48.890;9.278;2024-03-29T11:06:26;97077.31;;;10.82;86.04
9969;BME280;5025;48.890;9.278;2024-03-29T11:08:52;97073.78;;;10.86;86.30
9969;BME280;5025;48.890;9.278;2024-03-29T11:11:20;97067.28;;;10.92;86.67
9969;BME280;5025;48.890;9.278;2024-03-29T11:14:02;97058.09;;;10.99;86.90
9969;BME280;5025;48.890;9.278;2024-03-29T11:16:28;97055.09;;;11.05;86.87
9969;BME280;5025;48.890;9.278;2024-03-29T11:18:53;97052.66;;;11.09;87.33
9969;BME280;5025;48.890;9.278;2024-03-29T11:21:19;97039.16;;;11.14;87.50
9969;BME280;5025;48.890;9.278;2024-03-29T11:23:49;97049.94;;;11.19;87.68
9969;BME280;5025;48.890;9.278;2024-03-29T11:26:16;97037.50;;;11.23;87.90
9969;BME280;5025;48.890;9.278;2024-03-29T11:28:41;97056.34;;;11.34;88.00
9969;BME280;5025;48.890;9.278;2024-03-29T11:31:14;97058.50;;;11.42;87.99
9969;BME280;5025;48.890;9.278;2024-03-29T11:36:15;97050.03;;;11.54;88.18
9969;BME280;5025;48.890;9.278;2024-03-29T11:38:42;97052.47;;;11.60;88.01
9969;BME280;5025;48.890;9.278;2024-03-29T11:41:13;97047.03;;;11.65;88.28
9969;BME280;5025;48.890;9.278;2024-03-29T11:43:39;97035.38;;;11.70;88.63
9969;BME280;5025;48.890;9.278;2024-03-29T11:46:07;97017.75;;;11.78;88.66
9969;BME280;5025;48.890;9.278;2024-03-29T11:48:32;97015.00;;;11.83;88.77
9969;BME280;5025;48.890;9.278;2024-03-29T11:50:59;97014.16;;;11.88;89.06
9969;BME280;5025;48.890;9.278;2024-03-29T11:53:24;97024.16;;;11.92;89.15
9969;BME280;5025;48.890;9.278;2024-03-29T11:55:50;97034.44;;;11.95;89.21
9969;BME280;5025;48.890;9.278;2024-03-29T11:58:26;97042.25;;;11.97;89.30
9969;BME280;5025;48.890;9.278;2024-03-29T12:00:52;97049.59;;;11.96;89.64
9969;BME280;5025;48.890;9.278;2024-03-29T12:03:20;97061.19;;;11.97;89.71
9969;BME280;5025;48.890;9.278;2024-03-29T12:05:48;97076.34;;;11.98;89.53
9969;BME280;5025;48.890;9.278;2024-03-29T12:08:14;97083.38;;;11.99;89.43
9969;BME280;5025;48.890;9.278;2024-03-29T12:10:40;97075.78;;;12.01;89.45
9969;BME280;5025;48.890;9.278;2024-03-29T12:13:05;97089.84;;;12.03;89.28
9969;BME280;5025;48.890;9.278;2024-03-29T12:15:31;97088.75;;;12.04;89.08
9969;BME280;5025;48.890;9.278;2024-03-29T12:18:04;97090.06;;;12.07;89.03
9969;BME280;5025;48.890;9.278;2024-03-29T12:20:31;97078.47;;;12.06;88.95
9969;BME280;5025;48.890;9.278;2024-03-29T12:23:05;97066.50;;;12.12;88.56
9969;BME280;5025;48.890;9.278;2024-03-29T12:25:32;97061.59;;;12.19;88.63
9969;BME280;5025;48.890;9.278;2024-03-29T12:27:59;97063.66;;;12.33;88.41
9969;BME280;5025;48.890;9.278;2024-03-29T12:30:25;97076.56;;;12.46;88.04
9969;BME280;5025;48.890;9.278;2024-03-29T12:35:28;97065.50;;;12.72;87.22
9969;BME280;5025;48.890;9.278;2024-03-29T12:37:59;97058.03;;;12.88;86.91
9969;BME280;5025;48.890;9.278;2024-03-29T12:40:26;97048.69;;;12.99;86.47
9969;BME280;5025;48.890;9.278;2024-03-29T12:42:53;97052.94;;;13.11;86.14
9969;BME280;5025;48.890;9.278;2024-03-29T12:45:19;97048.72;;;13.23;86.04
9969;BME280;5025;48.890;9.278;2024-03-29T12:47:45;97059.47;;;13.34;85.65
9969;BME280;5025;48.890;9.278;2024-03-29T12:50:27;97054.44;;;13.46;85.35
9969;BME280;5025;48.890;9.278;2024-03-29T12:53:00;97055.41;;;13.55;85.17
9969;BME280;5025;48.890;9.278;2024-03-29T12:55:27;97050.38;;;13.68;84.79
9969;BME280;5025;48.890;9.278;2024-03-29T12:57:57;97048.47;;;13.87;84.50
9969;BME280;5025;48.890;9.278;2024-03-29T13:00:23;97067.47;;;14.06;84.21
9969;BME280;5025;48.890;9.278;2024-03-29T13:02:49;97073.81;;;14.21;83.50
9969;BME280;5025;48.890;9.278;2024-03-29T13:05:14;97091.09;;;14.25;83.32
9969;BME280;5025;48.890;9.278;2024-03-29T13:07:40;97069.81;;;14.32;83.12
9969;BME280;5025;48.890;9.278;2024-03-29T13:10:05;97080.00;;;14.40;82.75
9969;BME280;5025;48.890;9.278;2024-03-29T13:12:37;97083.94;;;14.48;82.40
9969;BME280;5025;48.890;9.278;2024-03-29T13:15:15;97058.22;;;14.59;81.91
9969;BME280;5025;48.890;9.278;2024-03-29T13:17:40;97066.44;;;14.73;81.86
9969;BME280;5025;48.890;9.278;2024-03-29T13:20:06;97075.53;;;14.82;81.62
9969;BME280;5025;48.890;9.278;2024-03-29T13:22:31;97066.00;;;14.99;81.52
9969;BME280;5025;48.890;9.278;2024-03-29T13:24:57;97049.53;;;15.23;81.59
9969;BME280;5025;48.890;9.278;2024-03-29T13:27:22;97061.50;;;15.64;81.04
9969;BME280;5025;48.890;9.278;2024-03-29T13:29:47;97050.84;;;16.04;80.33